Blanc-Sablon, Canada
Current Conditions -  °F | °C
As of 5:00 AM on Tuesday 21 Oct 2014 (Local Time) from CYBX Reporting Station
Scattered Clouds Scattered Clouds  
Wind Chill: 29°   Ceiling: Unl
Heat Index: 39°   Visibility: 15mi
Dew Point: 34°   Wind: 21mph
Humidity: 81%   Direction: 260°W
Pressure: 29.53"   Gusts: 26mph
Location:  51.43°N, 57.12°W
Report Text: CYBX 210800Z 26018G23KT 15SM SCT025 04/01 A2953 RMK SC4 PRESRRSLP002
Loading
Personal Weather Stations






























Interactive Weather Map
Tropical Storm Tracking
New forecast layout! Learn more

10-Day Weather Forecast

Advertisements
Track Severe Weather on mobile